createdAt,value
2017-11-29T00:01:44.804Z,4.71
2017-11-29T00:04:12.262Z,4.70
2017-11-29T00:06:39.758Z,4.62
2017-11-29T00:09:07.278Z,4.56
2017-11-29T00:11:34.725Z,4.57
2017-11-29T00:14:02.203Z,4.56
2017-11-29T00:16:29.750Z,4.53
2017-11-29T00:18:57.233Z,4.53
2017-11-29T00:21:24.713Z,4.52
2017-11-29T00:23:52.166Z,4.53
2017-11-29T00:26:19.656Z,4.53
2017-11-29T00:28:47.102Z,4.51
2017-11-29T00:31:14.586Z,4.51
2017-11-29T00:33:42.044Z,4.51
2017-11-29T00:36:23.968Z,4.49
2017-11-29T00:38:51.471Z,4.47
2017-11-29T00:41:18.988Z,4.46
2017-11-29T00:43:46.517Z,4.42
2017-11-29T00:46:13.975Z,4.39
2017-11-29T00:48:41.479Z,4.35
2017-11-29T00:51:08.939Z,4.35
2017-11-29T00:53:36.459Z,4.36
2017-11-29T00:56:08.889Z,4.38
2017-11-29T00:58:36.383Z,4.40
2017-11-29T01:01:03.814Z,4.41
2017-11-29T01:03:31.322Z,4.41
2017-11-29T01:05:58.815Z,4.39
2017-11-29T01:08:26.264Z,4.35
2017-11-29T01:10:53.974Z,4.36
2017-11-29T01:13:21.409Z,4.37
2017-11-29T01:15:49.149Z,4.40
2017-11-29T01:18:16.640Z,4.37
2017-11-29T01:20:44.102Z,4.35
2017-11-29T01:23:11.547Z,4.33
2017-11-29T01:25:39.017Z,4.34
2017-11-29T01:28:06.591Z,4.29
2017-11-29T01:30:34.043Z,4.28
2017-11-29T01:33:01.580Z,4.25
2017-11-29T01:35:33.967Z,4.23
2017-11-29T01:38:01.724Z,4.19
2017-11-29T01:40:29.278Z,4.16
2017-11-29T01:42:56.761Z,4.16
2017-11-29T01:45:24.294Z,4.17
2017-11-29T01:47:51.757Z,4.13
2017-11-29T01:50:19.199Z,4.07
2017-11-29T01:52:46.646Z,4.03
2017-11-29T01:55:14.395Z,4.01
2017-11-29T01:57:41.854Z,4.03
2017-11-29T02:00:09.310Z,4.01
2017-11-29T02:02:36.865Z,4.02
2017-11-29T02:05:04.360Z,4.02
2017-11-29T02:07:31.887Z,4.01
2017-11-29T02:09:59.378Z,3.97
2017-11-29T02:12:26.846Z,3.91
2017-11-29T02:14:54.357Z,3.92
2017-11-29T02:17:21.820Z,3.92
2017-11-29T02:19:49.350Z,3.91
2017-11-29T02:22:16.802Z,3.90
2017-11-29T02:24:44.313Z,3.88
2017-11-29T02:27:11.828Z,3.84
2017-11-29T02:29:39.304Z,3.77
2017-11-29T02:32:06.763Z,3.72
2017-11-29T02:34:34.242Z,3.73
2017-11-29T02:37:01.734Z,3.70
2017-11-29T02:39:29.192Z,3.68
2017-11-29T02:42:08.441Z,3.65
2017-11-29T02:44:35.900Z,3.63
2017-11-29T02:47:03.400Z,3.59
2017-11-29T02:49:30.825Z,3.55
2017-11-29T02:51:58.293Z,3.54
2017-11-29T02:54:25.801Z,3.51
2017-11-29T02:56:53.244Z,3.49
2017-11-29T02:59:20.703Z,3.50
2017-11-29T03:01:48.172Z,3.51
2017-11-29T03:04:15.664Z,3.51
2017-11-29T03:06:43.143Z,3.49
2017-11-29T03:09:10.634Z,3.47
2017-11-29T03:11:38.056Z,3.46
2017-11-29T03:14:05.491Z,3.52
2017-11-29T03:16:32.944Z,3.51
2017-11-29T03:19:00.412Z,3.54
2017-11-29T03:21:27.963Z,3.51
2017-11-29T03:23:55.489Z,3.51
2017-11-29T03:26:22.921Z,3.50
2017-11-29T03:28:50.540Z,3.46
2017-11-29T03:31:18.030Z,3.49
2017-11-29T03:33:45.503Z,3.51
2017-11-29T03:36:12.972Z,3.51
2017-11-29T03:38:40.475Z,3.54
2017-11-29T03:41:07.931Z,3.54
2017-11-29T03:43:35.421Z,3.53
2017-11-29T03:46:02.907Z,3.49
2017-11-29T03:48:30.406Z,3.48
2017-11-29T03:50:57.983Z,3.47
2017-11-29T03:53:25.447Z,3.48
2017-11-29T03:55:52.877Z,3.48
2017-11-29T03:58:20.330Z,3.50
2017-11-29T04:00:47.809Z,3.49
2017-11-29T04:03:15.311Z,3.49
2017-11-29T04:05:42.746Z,3.49
2017-11-29T04:08:10.266Z,3.48
2017-11-29T04:10:37.718Z,3.47
2017-11-29T04:13:05.197Z,3.46
2017-11-29T04:15:33.727Z,3.43
2017-11-29T04:18:01.209Z,3.46
2017-11-29T04:20:28.640Z,3.43
2017-11-29T04:22:56.110Z,3.42
2017-11-29T04:25:23.570Z,3.42
2017-11-29T04:27:51.001Z,3.40
2017-11-29T04:30:18.442Z,3.41
2017-11-29T04:32:45.894Z,3.40
2017-11-29T04:35:13.357Z,3.36
2017-11-29T04:37:40.902Z,3.36
2017-11-29T04:40:08.414Z,3.37
2017-11-29T04:42:35.931Z,3.38
2017-11-29T04:45:13.042Z,3.37
2017-11-29T04:47:40.476Z,3.38
2017-11-29T04:50:07.936Z,3.38
2017-11-29T04:52:35.397Z,3.37
2017-11-29T04:55:22.159Z,3.38
2017-11-29T04:57:49.641Z,3.37
2017-11-29T05:00:17.098Z,3.34
2017-11-29T05:02:44.573Z,3.33
2017-11-29T05:05:12.038Z,3.31
2017-11-29T05:07:39.521Z,3.28
2017-11-29T05:10:06.983Z,3.30
2017-11-29T05:12:34.505Z,3.28
2017-11-29T05:15:01.990Z,3.25
2017-11-29T05:17:29.512Z,3.27
2017-11-29T05:19:56.977Z,3.27
2017-11-29T05:22:24.458Z,3.27
2017-11-29T05:24:51.975Z,3.28
2017-11-29T05:27:19.483Z,3.32
2017-11-29T05:29:47.023Z,3.30
2017-11-29T05:32:14.611Z,3.27
2017-11-29T05:34:42.129Z,3.26
2017-11-29T05:37:09.668Z,3.23
2017-11-29T05:39:37.141Z,3.24
2017-11-29T05:42:05.451Z,3.26
2017-11-29T05:44:33.095Z,3.24
2017-11-29T05:47:00.586Z,3.24
2017-11-29T05:49:28.030Z,3.20
2017-11-29T05:51:55.491Z,3.19
2017-11-29T05:54:22.946Z,3.18
2017-11-29T05:56:50.415Z,3.18
2017-11-29T05:59:17.895Z,3.17
2017-11-29T06:01:45.340Z,3.14
2017-11-29T06:04:12.801Z,3.14
2017-11-29T06:06:40.286Z,3.15
2017-11-29T06:09:07.882Z,3.14
2017-11-29T06:11:35.382Z,3.13
2017-11-29T06:14:02.902Z,3.18
2017-11-29T06:16:30.396Z,3.13
2017-11-29T06:18:57.931Z,3.14
2017-11-29T06:21:25.511Z,3.16
2017-11-29T06:23:53.034Z,3.15
2017-11-29T06:33:05.853Z,3.19
2017-11-29T06:35:33.355Z,3.20
2017-11-29T06:38:00.841Z,3.17
2017-11-29T06:40:28.355Z,3.16
2017-11-29T06:42:57.299Z,3.16
2017-11-29T06:45:25.732Z,3.14
2017-11-29T06:47:53.193Z,3.14
2017-11-29T06:50:20.753Z,3.15
2017-11-29T06:52:48.246Z,3.12
2017-11-29T06:55:15.787Z,3.09
2017-11-29T06:57:43.324Z,3.09
2017-11-29T07:00:10.912Z,3.08
2017-11-29T07:02:38.425Z,3.08
2017-11-29T07:05:05.908Z,3.09
2017-11-29T07:07:33.812Z,3.11
2017-11-29T07:10:01.257Z,3.15
2017-11-29T07:12:28.722Z,3.14
2017-11-29T07:14:56.297Z,3.15
2017-11-29T07:17:23.793Z,3.16
2017-11-29T07:19:51.265Z,3.15
2017-11-29T07:22:18.780Z,3.17
2017-11-29T07:24:46.344Z,3.17
2017-11-29T07:27:13.861Z,3.17
2017-11-29T07:29:41.399Z,3.19
2017-11-29T07:32:08.873Z,3.20
2017-11-29T07:34:36.356Z,3.20
2017-11-29T07:37:03.868Z,3.24
2017-11-29T07:39:31.365Z,3.24
2017-11-29T07:41:58.820Z,3.24
2017-11-29T07:44:26.356Z,3.27
2017-11-29T07:46:53.837Z,3.29
2017-11-29T07:49:21.292Z,3.32
2017-11-29T07:51:48.762Z,3.29
2017-11-29T07:54:16.201Z,3.31
2017-11-29T07:56:43.774Z,3.32
2017-11-29T07:59:11.304Z,3.34
2017-11-29T08:01:38.770Z,3.35
2017-11-29T08:04:06.246Z,3.38
2017-11-29T08:06:33.754Z,3.43
2017-11-29T08:09:01.336Z,3.43
2017-11-29T08:11:28.854Z,3.42
2017-11-29T08:13:56.310Z,3.43
2017-11-29T08:19:26.868Z,3.45
2017-11-29T08:21:54.321Z,3.48
2017-11-29T08:24:21.888Z,3.51
2017-11-29T08:26:49.429Z,3.52
2017-11-29T08:29:17.006Z,3.53
2017-11-29T08:31:44.594Z,3.57
2017-11-29T08:34:12.089Z,3.61
2017-11-29T08:36:39.536Z,3.64
2017-11-29T08:39:07.022Z,3.69
2017-11-29T08:41:34.504Z,3.76
2017-11-29T08:44:02.046Z,3.86
2017-11-29T08:46:29.500Z,3.92
2017-11-29T08:48:56.990Z,3.95
2017-11-29T08:51:24.506Z,3.98
2017-11-29T08:53:51.998Z,4.03
2017-11-29T08:56:19.551Z,4.03
2017-11-29T08:58:47.126Z,4.05
2017-11-29T09:01:14.676Z,4.08
2017-11-29T09:03:42.261Z,4.13
2017-11-29T09:06:09.814Z,4.16
2017-11-29T09:08:37.392Z,4.18
2017-11-29T09:11:04.862Z,4.20
2017-11-29T09:13:32.614Z,4.23
2017-11-29T09:16:00.235Z,4.29
2017-11-29T09:18:27.786Z,4.34
2017-11-29T09:20:55.274Z,4.39
2017-11-29T09:23:22.750Z,4.39
2017-11-29T09:25:50.261Z,4.43
2017-11-29T09:28:17.871Z,4.41
2017-11-29T09:30:45.446Z,4.45
2017-11-29T09:33:12.926Z,4.49
2017-11-29T09:35:40.501Z,4.61
2017-11-29T09:38:08.204Z,4.75
2017-11-29T09:40:35.710Z,4.91
2017-11-29T09:43:03.290Z,4.96
2017-11-29T09:45:30.790Z,5.05
2017-11-29T09:47:58.530Z,5.11
2017-11-29T09:50:26.144Z,5.15
2017-11-29T09:52:53.714Z,5.16
2017-11-29T09:55:22.323Z,5.21
2017-11-29T09:57:49.818Z,5.29
2017-11-29T10:00:17.507Z,5.42
2017-11-29T10:02:45.075Z,5.50
2017-11-29T10:05:17.925Z,5.55
2017-11-29T10:07:46.779Z,5.61
2017-11-29T10:10:14.711Z,5.67
2017-11-29T10:12:42.332Z,5.76
2017-11-29T10:15:09.911Z,5.78
2017-11-29T10:17:37.463Z,5.80
2017-11-29T10:20:05.020Z,5.83
2017-11-29T10:22:32.589Z,5.86
2017-11-29T10:25:03.614Z,5.89
2017-11-29T10:27:31.262Z,5.97
2017-11-29T10:29:58.825Z,5.98
2017-11-29T10:32:26.402Z,6.09
2017-11-29T10:34:53.919Z,6.07
2017-11-29T10:37:21.408Z,6.06
2017-11-29T10:39:48.939Z,6.10
2017-11-29T10:42:16.595Z,6.12
2017-11-29T10:44:45.022Z,6.16
2017-11-29T10:47:13.065Z,6.22
2017-11-29T10:49:40.621Z,6.23
2017-11-29T10:52:08.209Z,6.26
2017-11-29T10:54:35.726Z,6.28
2017-11-29T10:57:03.307Z,6.32
2017-11-29T10:59:31.213Z,6.41
2017-11-29T11:01:58.703Z,6.40
2017-11-29T11:04:26.203Z,6.35
2017-11-29T11:06:53.851Z,6.29
2017-11-29T11:09:21.460Z,6.28
2017-11-29T11:11:49.061Z,6.27
2017-11-29T11:14:16.657Z,6.27
2017-11-29T11:16:44.181Z,6.34
2017-11-29T11:19:11.726Z,6.43
2017-11-29T11:21:39.231Z,6.47
2017-11-29T11:24:06.754Z,6.45
2017-11-29T11:26:34.225Z,6.54
2017-11-29T11:29:01.662Z,6.56
2017-11-29T11:31:29.131Z,6.60
2017-11-29T11:33:57.493Z,6.64
2017-11-29T11:36:25.349Z,6.66
2017-11-29T11:38:52.878Z,6.73
2017-11-29T11:41:21.053Z,6.75
2017-11-29T11:43:48.566Z,6.84
2017-11-29T11:46:16.117Z,6.78
2017-11-29T11:48:44.491Z,6.79
2017-11-29T11:51:12.145Z,6.82
2017-11-29T11:53:39.718Z,6.85
2017-11-29T11:56:08.233Z,6.90
2017-11-29T11:58:35.782Z,7.01
2017-11-29T12:01:03.416Z,6.99
2017-11-29T12:03:30.972Z,7.08
2017-11-29T12:05:58.759Z,7.08
2017-11-29T12:08:26.292Z,7.05
2017-11-29T12:10:54.527Z,6.96
2017-11-29T12:13:22.014Z,6.89
2017-11-29T12:15:54.406Z,6.91
2017-11-29T12:18:21.918Z,7.01
2017-11-29T12:20:50.317Z,6.96
2017-11-29T12:23:17.885Z,7.02
2017-11-29T12:25:45.557Z,7.25
2017-11-29T12:28:13.075Z,7.53
2017-11-29T12:30:40.741Z,7.67
2017-11-29T12:33:08.303Z,7.84
2017-11-29T12:35:35.784Z,7.86
2017-11-29T12:38:03.275Z,7.98
2017-11-29T12:40:30.849Z,7.94
2017-11-29T12:42:58.985Z,7.90
2017-11-29T12:45:31.593Z,7.94
2017-11-29T12:48:11.027Z,7.84
2017-11-29T12:50:50.240Z,7.91
2017-11-29T12:53:17.836Z,7.99
2017-11-29T12:55:45.756Z,8.08
2017-11-29T12:58:13.601Z,8.21
2017-11-29T13:00:41.170Z,8.06
2017-11-29T13:03:09.866Z,7.94
2017-11-29T13:05:37.966Z,7.77
2017-11-29T13:08:05.723Z,7.64
2017-11-29T13:10:33.265Z,7.52
2017-11-29T13:13:02.795Z,7.38
2017-11-29T13:15:31.959Z,7.17
2017-11-29T13:18:00.450Z,7.08
2017-11-29T13:20:28.020Z,7.03
2017-11-29T13:22:55.525Z,6.92
2017-11-29T13:25:23.085Z,6.85
2017-11-29T13:27:50.613Z,6.82
2017-11-29T13:30:18.041Z,6.82
2017-11-29T13:32:45.611Z,6.93
2017-11-29T13:35:13.387Z,6.93
2017-11-29T13:37:40.884Z,6.98
2017-11-29T13:40:08.371Z,6.95
2017-11-29T13:42:36.022Z,6.91
2017-11-29T13:45:03.634Z,6.91
2017-11-29T13:47:31.125Z,6.91
2017-11-29T13:49:58.846Z,6.90
2017-11-29T13:52:26.382Z,6.85
2017-11-29T13:54:53.881Z,6.76
2017-11-29T13:57:35.964Z,6.74
2017-11-29T14:00:03.541Z,6.69
2017-11-29T14:02:31.665Z,6.68
2017-11-29T14:04:59.357Z,6.64
2017-11-29T14:07:27.089Z,6.59
2017-11-29T14:09:54.648Z,6.55
2017-11-29T14:12:22.133Z,6.54
2017-11-29T14:14:49.651Z,6.50
2017-11-29T14:17:17.165Z,6.49
2017-11-29T14:19:44.709Z,6.43
2017-11-29T14:22:12.197Z,6.37
2017-11-29T14:24:39.982Z,6.32
2017-11-29T14:27:07.540Z,6.29
2017-11-29T14:29:35.129Z,6.25
2017-11-29T14:32:02.703Z,6.21
2017-11-29T14:34:30.269Z,6.19
2017-11-29T14:36:57.741Z,6.16
2017-11-29T14:39:25.201Z,6.13
2017-11-29T14:41:52.645Z,6.10
2017-11-29T14:44:20.126Z,6.08
2017-11-29T14:46:47.592Z,6.06
2017-11-29T14:49:15.241Z,6.05
2017-11-29T14:51:42.827Z,6.02
2017-11-29T14:54:10.421Z,6.01
2017-11-29T14:56:38.014Z,5.98
2017-11-29T14:59:05.716Z,5.97
2017-11-29T15:01:33.261Z,5.97
2017-11-29T15:04:00.981Z,5.94
2017-11-29T15:06:28.557Z,5.93
2017-11-29T15:08:56.234Z,5.91
2017-11-29T15:11:23.864Z,5.88
2017-11-29T15:13:51.390Z,5.86
2017-11-29T15:16:19.349Z,5.83
2017-11-29T15:18:46.934Z,5.80
2017-11-29T15:21:15.301Z,5.78
2017-11-29T15:23:43.019Z,5.78
2017-11-29T15:26:10.560Z,5.77
2017-11-29T15:28:38.053Z,5.77
2017-11-29T15:31:06.185Z,5.76
2017-11-29T15:33:33.657Z,5.75
2017-11-29T15:39:17.522Z,5.74
2017-11-29T15:41:47.603Z,5.72
2017-11-29T15:44:15.118Z,5.70
2017-11-29T15:46:42.688Z,5.69
2017-11-29T15:49:10.183Z,5.70
2017-11-29T15:51:37.665Z,5.69
2017-11-29T15:54:06.131Z,5.69
2017-11-29T15:56:33.592Z,5.68
2017-11-29T15:59:01.135Z,5.68
2017-11-29T16:01:28.797Z,5.65
2017-11-29T16:03:56.470Z,5.63
2017-11-29T16:06:24.283Z,5.63
2017-11-29T16:08:51.819Z,5.62
2017-11-29T16:11:19.381Z,5.62
2017-11-29T16:13:46.976Z,5.61
2017-11-29T16:16:14.442Z,5.61
2017-11-29T16:18:43.302Z,5.60
2017-11-29T16:21:10.793Z,5.60
2017-11-29T16:23:38.346Z,5.59
2017-11-29T16:26:06.105Z,5.60
2017-11-29T16:28:33.813Z,5.61
2017-11-29T16:31:02.601Z,5.59
2017-11-29T16:33:30.165Z,5.58
2017-11-29T16:35:57.916Z,5.56
2017-11-29T16:38:25.649Z,5.55
2017-11-29T16:40:53.198Z,5.53
2017-11-29T16:43:20.800Z,5.52
2017-11-29T16:45:48.417Z,5.51
2017-11-29T16:48:16.078Z,5.54
2017-11-29T16:50:43.687Z,5.49
2017-11-29T16:53:11.642Z,5.48
2017-11-29T16:55:59.390Z,5.45
2017-11-29T16:58:27.263Z,5.44
2017-11-29T17:00:54.778Z,5.44
2017-11-29T17:03:22.268Z,5.46
2017-11-29T17:05:49.843Z,5.45
2017-11-29T17:08:17.414Z,5.47
2017-11-29T17:10:44.957Z,5.48
2017-11-29T17:13:12.665Z,5.48
2017-11-29T17:15:40.424Z,5.49
2017-11-29T17:18:07.941Z,5.49
2017-11-29T17:20:35.479Z,5.49
2017-11-29T17:23:02.959Z,5.47
2017-11-29T17:25:35.457Z,5.47
2017-11-29T17:28:03.022Z,5.48
2017-11-29T17:30:30.904Z,5.48
2017-11-29T17:32:58.414Z,5.50
2017-11-29T17:35:26.156Z,5.56
2017-11-29T17:37:54.074Z,5.62
2017-11-29T17:40:21.555Z,5.62
2017-11-29T17:42:49.312Z,5.63
2017-11-29T17:45:17.016Z,5.63
2017-11-29T17:47:44.595Z,5.62
2017-11-29T17:50:12.408Z,5.62
2017-11-29T17:52:40.040Z,5.61
2017-11-29T17:55:07.707Z,5.62
2017-11-29T17:57:35.228Z,5.64
2017-11-29T18:00:02.976Z,5.63
2017-11-29T18:02:30.530Z,5.62
2017-11-29T18:04:58.221Z,5.61
2017-11-29T18:07:40.409Z,5.61
2017-11-29T18:10:10.289Z,5.62
2017-11-29T18:12:38.124Z,5.62
2017-11-29T18:15:12.512Z,5.61
2017-11-29T18:17:40.575Z,5.63
2017-11-29T18:20:08.378Z,5.63
2017-11-29T18:22:37.255Z,5.62
2017-11-29T18:25:05.004Z,5.63
2017-11-29T18:27:32.515Z,5.63
2017-11-29T18:30:00.130Z,5.60
2017-11-29T18:32:27.700Z,5.58
2017-11-29T18:34:55.523Z,5.58
2017-11-29T18:37:23.073Z,5.57
2017-11-29T18:39:50.541Z,5.63
2017-11-29T18:42:18.105Z,5.63
2017-11-29T18:44:45.728Z,5.64
2017-11-29T18:47:13.358Z,5.65
2017-11-29T18:49:40.926Z,5.61
2017-11-29T18:52:08.785Z,5.58
2017-11-29T18:54:36.507Z,5.56
2017-11-29T18:57:04.120Z,5.56
2017-11-29T18:59:31.664Z,5.54
2017-11-29T19:02:00.095Z,5.54
2017-11-29T19:04:29.098Z,5.52
2017-11-29T19:06:58.977Z,5.51
2017-11-29T19:09:27.558Z,5.52
2017-11-29T19:12:00.057Z,5.51
2017-11-29T19:14:29.080Z,5.51
2017-11-29T19:16:56.663Z,5.51
2017-11-29T19:19:24.322Z,5.52
2017-11-29T19:21:52.848Z,5.54
2017-11-29T19:24:20.381Z,5.53
2017-11-29T19:26:47.963Z,5.49
2017-11-29T19:29:16.398Z,5.50
2017-11-29T19:31:44.265Z,5.45
2017-11-29T19:34:11.841Z,5.42
2017-11-29T19:36:39.455Z,5.43
2017-11-29T19:39:07.094Z,5.41
2017-11-29T19:41:34.722Z,5.37
2017-11-29T19:44:02.286Z,5.36
2017-11-29T19:46:29.836Z,5.33
2017-11-29T19:48:57.837Z,5.36
2017-11-29T19:51:26.322Z,5.33
2017-11-29T19:53:54.090Z,5.33
2017-11-29T19:56:21.735Z,5.32
2017-11-29T19:58:49.233Z,5.30
2017-11-29T20:01:16.878Z,5.28
2017-11-29T20:03:44.454Z,5.26
2017-11-29T20:06:16.189Z,5.26
2017-11-29T20:08:44.447Z,5.25
2017-11-29T20:11:13.306Z,5.26
2017-11-29T20:13:41.035Z,5.28
2017-11-29T20:16:18.269Z,5.30
2017-11-29T20:18:45.889Z,5.33
2017-11-29T20:21:17.113Z,5.33
2017-11-29T20:23:44.677Z,5.33
2017-11-29T20:26:12.621Z,5.33
2017-11-29T20:28:40.444Z,5.32
2017-11-29T20:31:08.481Z,5.30
2017-11-29T20:33:36.094Z,5.28
2017-11-29T20:36:10.821Z,5.29
2017-11-29T20:38:53.880Z,5.27
2017-11-29T20:41:21.427Z,5.20
2017-11-29T20:43:49.080Z,5.13
2017-11-29T20:46:16.621Z,5.14
2017-11-29T20:48:44.995Z,5.10
2017-11-29T20:51:12.798Z,5.10
2017-11-29T20:53:40.639Z,5.10
2017-11-29T20:59:01.207Z,5.07
2017-11-29T21:01:29.369Z,5.06
2017-11-29T21:04:03.191Z,5.03
2017-11-29T21:06:56.200Z,5.03
2017-11-29T21:09:23.898Z,5.03
2017-11-29T21:11:54.072Z,5.03
2017-11-29T21:14:21.876Z,5.03
2017-11-29T21:16:50.395Z,5.05
2017-11-29T21:19:18.855Z,5.07
2017-11-29T21:21:48.158Z,5.09
2017-11-29T21:24:15.788Z,5.10
2017-11-29T21:29:55.725Z,5.14
2017-11-29T21:32:23.366Z,5.16
2017-11-29T21:34:50.945Z,5.18
2017-11-29T21:37:19.231Z,5.18
2017-11-29T21:39:46.793Z,5.19
2017-11-29T21:42:14.291Z,5.20
2017-11-29T21:44:42.595Z,5.20
2017-11-29T21:47:10.177Z,5.20
2017-11-29T21:49:38.716Z,5.21
2017-11-29T21:52:06.465Z,5.23
2017-11-29T21:54:34.023Z,5.23
2017-11-29T21:57:01.768Z,5.22
2017-11-29T21:59:29.334Z,5.24
2017-11-29T22:01:57.128Z,5.24
2017-11-29T22:04:24.589Z,5.24
2017-11-29T22:06:52.894Z,5.28
2017-11-29T22:09:20.466Z,5.27
2017-11-29T22:11:48.280Z,5.36
2017-11-29T22:14:16.690Z,5.41
2017-11-29T22:16:44.197Z,5.34
2017-11-29T22:19:11.644Z,5.37
2017-11-29T22:21:39.136Z,5.26
2017-11-29T22:24:07.324Z,5.19
2017-11-29T22:26:34.869Z,5.17
2017-11-29T22:29:02.442Z,5.11
2017-11-29T22:31:30.315Z,5.06
2017-11-29T22:33:57.866Z,5.09
2017-11-29T22:36:25.359Z,5.14
2017-11-29T22:38:54.326Z,5.21
2017-11-29T22:41:21.905Z,5.23
2017-11-29T22:43:49.610Z,5.21
2017-11-29T22:46:18.982Z,5.12
2017-11-29T22:48:46.595Z,5.11
2017-11-29T22:51:14.949Z,5.07
2017-11-29T22:53:42.553Z,5.07
2017-11-29T22:56:24.309Z,5.03
2017-11-29T22:58:51.932Z,4.99
2017-11-29T23:01:19.453Z,4.97
2017-11-29T23:03:46.977Z,4.98
2017-11-29T23:06:14.583Z,5.04
2017-11-29T23:08:42.078Z,5.03
2017-11-29T23:11:09.986Z,5.08
2017-11-29T23:13:37.512Z,5.09
2017-11-29T23:16:04.962Z,5.09
2017-11-29T23:18:32.431Z,5.05
2017-11-29T23:21:00.004Z,5.05
2017-11-29T23:23:28.445Z,5.05
2017-11-29T23:25:56.647Z,5.07
2017-11-29T23:28:24.545Z,5.05
2017-11-29T23:30:52.025Z,5.06
2017-11-29T23:33:19.504Z,5.10
2017-11-29T23:35:47.061Z,5.06
2017-11-29T23:38:14.509Z,5.07
2017-11-29T23:40:42.426Z,5.09
2017-11-29T23:43:10.126Z,5.09
2017-11-29T23:45:47.270Z,5.13
2017-11-29T23:48:15.015Z,5.11
2017-11-29T23:50:43.268Z,5.06
2017-11-29T23:53:10.725Z,5.01
2017-11-29T23:55:52.722Z,4.98
2017-11-29T23:58:21.252Z,5.00
